Time;durP1;ratioP1;P1;durP2;ratioP2;P2;SDS_P1;SDS_P2;PMS_P1;PMS_P2;Temp;Humidity;BMP_temperature;BMP_pressure;BME280_temperature;BME280_humidity;BME280_pressure;Samples;Min_cycle;Max_cycle;Signal;HPM_P1;HPM_P2
2022/04/22 00:01:13;;;;;;;10.00;8.50;;;12.20;92.60;;;;;;5015372;28;20180;-91
2022/04/22 00:03:39;;;;;;;11.60;7.97;;;12.20;92.60;;;;;;5014110;28;20197;-88
2022/04/22 00:06:05;;;;;;;11.80;8.50;;;12.20;92.60;;;;;;5014483;28;20207;-88
2022/04/22 00:08:31;;;;;;;10.80;8.50;;;12.30;92.60;;;;;;5014267;28;20194;-89
2022/04/22 00:13:43;;;;;;;11.10;8.20;;;12.30;92.60;;;;;;5033291;28;20222;-92
2022/04/22 00:16:08;;;;;;;11.63;8.85;;;12.30;92.70;;;;;;5042599;28;20634;-89
2022/04/22 00:18:35;;;;;;;12.63;7.50;;;12.30;92.60;;;;;;5036846;28;20285;-92
2022/04/22 00:21:01;;;;;;;10.27;8.48;;;12.30;92.70;;;;;;5058304;28;20186;-91
2022/04/22 00:23:27;;;;;;;14.13;8.93;;;12.30;92.70;;;;;;5037161;28;20198;-88
2022/04/22 00:25:54;;;;;;;9.40;7.70;;;12.30;92.70;;;;;;5037185;28;20861;-88
2022/04/22 00:28:20;;;;;;;10.55;8.20;;;12.30;92.70;;;;;;5038504;28;20193;-91
2022/04/22 00:30:47;;;;;;;12.32;8.73;;;12.30;92.60;;;;;;5056013;28;20178;-92
2022/04/22 00:33:14;;;;;;;10.10;8.00;;;12.30;92.70;;;;;;5036538;28;20244;-89
2022/04/22 00:35:40;;;;;;;15.00;8.52;;;12.30;92.80;;;;;;5036251;28;20186;-88
2022/04/22 00:38:07;;;;;;;14.27;10.07;;;12.30;92.80;;;;;;5059268;28;20663;-91
2022/04/22 00:40:32;;;;;;;12.90;9.00;;;12.30;92.70;;;;;;5042289;28;20228;-88
2022/04/22 00:42:59;;;;;;;14.53;9.17;;;12.40;92.80;;;;;;5056661;28;20194;-92
2022/04/22 00:45:25;;;;;;;12.32;8.95;;;12.40;92.80;;;;;;5037479;28;20478;-91
2022/04/22 00:47:51;;;;;;;14.20;8.97;;;12.40;92.70;;;;;;5038451;28;20208;-91
2022/04/22 00:50:17;;;;;;;13.30;8.90;;;12.40;92.70;;;;;;5036351;28;20459;-91
2022/04/22 00:52:43;;;;;;;14.52;9.30;;;12.40;92.70;;;;;;5037567;28;20194;-89
2022/04/22 00:55:09;;;;;;;12.93;7.75;;;12.40;92.70;;;;;;5054780;28;20194;-92
2022/04/22 00:57:35;;;;;;;10.00;6.77;;;12.50;92.70;;;;;;5037521;28;20198;-92
2022/04/22 01:00:03;;;;;;;13.32;8.85;;;12.40;92.70;;;;;;5037577;28;20503;-88
2022/04/22 01:02:28;;;;;;;11.25;7.32;;;12.50;93.10;;;;;;5055824;28;20646;-91
2022/04/22 01:10:23;;;;;;;9.27;7.95;;;12.50;93.00;;;;;;5053310;28;20307;-91
2022/04/22 01:12:49;;;;;;;10.75;7.78;;;12.40;92.70;;;;;;5053710;28;20686;-92
2022/04/22 01:15:14;;;;;;;9.27;7.60;;;12.50;92.70;;;;;;5036355;28;20211;-91
2022/04/22 01:17:40;;;;;;;11.87;7.93;;;12.50;92.70;;;;;;5013511;28;20519;-89
2022/04/22 01:20:07;;;;;;;11.03;7.60;;;12.50;92.70;;;;;;5018046;28;20425;-92
2022/04/22 01:22:33;;;;;;;8.38;6.60;;;12.50;92.60;;;;;;5020646;28;20199;-91
2022/04/22 01:25:01;;;;;;;10.77;7.17;;;12.50;93.00;;;;;;5020068;28;20756;-88
2022/04/22 01:27:29;;;;;;;11.50;7.57;;;12.50;92.50;;;;;;5011213;28;20434;-88
2022/04/22 01:30:00;;;;;;;8.80;6.57;;;12.60;92.50;;;;;;5011418;28;20225;-92
2022/04/22 01:32:27;;;;;;;11.65;7.47;;;12.50;92.40;;;;;;5011921;28;20211;-92
2022/04/22 01:34:53;;;;;;;9.05;6.45;;;12.50;92.30;;;;;;5013276;28;20171;-91
2022/04/22 01:37:19;;;;;;;9.05;6.05;;;12.60;92.30;;;;;;5012663;28;20339;-89
2022/04/22 01:39:45;;;;;;;10.63;7.15;;;12.50;92.20;;;;;;5012717;28;20183;-89
2022/04/22 01:42:11;;;;;;;7.73;6.77;;;12.60;92.30;;;;;;5013900;28;20308;-91
2022/04/22 01:44:37;;;;;;;7.93;6.10;;;12.60;92.20;;;;;;5013559;28;20230;-90
2022/04/22 01:47:04;;;;;;;8.83;6.77;;;12.60;92.10;;;;;;5011113;28;20226;-88
2022/04/22 01:49:30;;;;;;;6.20;5.32;;;12.60;92.00;;;;;;5012861;28;20178;-92
2022/04/22 01:51:56;;;;;;;9.85;6.20;;;12.60;92.10;;;;;;5012156;28;20207;-91
2022/04/22 01:54:22;;;;;;;9.18;6.80;;;12.60;92.20;;;;;;5013492;28;20205;-89
2022/04/22 01:56:48;;;;;;;7.73;6.93;;;12.60;92.40;;;;;;5016924;28;20194;-88
2022/04/22 01:59:13;;;;;;;10.70;7.13;;;12.60;92.40;;;;;;5016100;28;20184;-91
2022/04/22 02:01:39;;;;;;;8.13;6.00;;;12.60;92.40;;;;;;5014473;28;20609;-89
2022/04/22 02:04:05;;;;;;;8.47;6.70;;;12.60;92.40;;;;;;5014380;28;20210;-89
2022/04/22 02:06:32;;;;;;;9.30;6.32;;;12.60;92.50;;;;;;5024277;28;20179;-88
2022/04/22 02:08:58;;;;;;;11.45;6.53;;;12.60;92.50;;;;;;5022595;28;20199;-92
2022/04/22 02:11:23;;;;;;;10.10;6.97;;;12.50;92.60;;;;;;5029924;28;20242;-88
2022/04/22 02:13:49;;;;;;;8.73;6.27;;;12.50;92.70;;;;;;5015571;28;20420;-90
2022/04/22 02:16:15;;;;;;;7.13;6.40;;;12.50;92.70;;;;;;5023079;28;20190;-91
2022/04/22 02:18:42;;;;;;;8.73;6.57;;;12.50;92.70;;;;;;5052428;28;20197;-91
2022/04/22 02:21:10;;;;;;;8.65;6.53;;;12.50;92.70;;;;;;5052968;28;20177;-89
2022/04/22 02:23:36;;;;;;;9.13;6.82;;;12.50;92.70;;;;;;5053610;28;20193;-88
2022/04/22 02:26:03;;;;;;;7.85;5.97;;;12.50;92.70;;;;;;5035497;28;20197;-90
2022/04/22 02:28:32;;;;;;;13.00;7.30;;;12.50;92.70;;;;;;5035978;28;20198;-91
2022/04/22 02:31:11;;;;;;;9.27;6.50;;;12.50;92.70;;;;;;5055515;28;20192;-91
2022/04/22 02:33:41;;;;;;;8.10;5.70;;;12.50;93.00;;;;;;5037198;28;20229;-91
2022/04/22 02:36:08;;;;;;;9.30;6.57;;;12.50;92.70;;;;;;5053032;28;20630;-89
2022/04/22 02:38:34;;;;;;;8.60;5.78;;;12.50;92.70;;;;;;5053104;28;20220;-88
2022/04/22 02:46:30;;;;;;;7.60;6.40;;;12.50;93.40;;;;;;5053454;28;20269;-92
2022/04/22 02:48:58;;;;;;;9.70;6.87;;;12.50;93.70;;;;;;5034996;28;20209;-88
2022/04/22 02:51:24;;;;;;;8.65;6.22;;;12.50;94.00;;;;;;5035966;28;20422;-92
2022/04/22 02:53:50;;;;;;;8.30;6.25;;;12.50;94.20;;;;;;5054559;28;20170;-91
2022/04/22 02:56:18;;;;;;;9.73;7.00;;;12.50;94.60;;;;;;5036775;28;20281;-91
2022/04/22 02:58:44;;;;;;;10.70;7.15;;;12.50;94.30;;;;;;5037471;28;20221;-92
2022/04/22 03:01:10;;;;;;;9.20;6.60;;;12.50;94.60;;;;;;5038145;28;20197;-91
2022/04/22 03:03:36;;;;;;;8.17;7.23;;;12.50;94.50;;;;;;5038131;28;20194;-92
2022/04/22 03:06:02;;;;;;;10.50;5.80;;;12.50;94.50;;;;;;5038321;28;20438;-90
2022/04/22 03:08:28;;;;;;;8.20;6.03;;;12.50;94.60;;;;;;5038339;28;20220;-88
2022/04/22 03:10:55;;;;;;;10.33;6.60;;;12.40;94.70;;;;;;5038045;28;20252;-89
2022/04/22 03:13:21;;;;;;;7.35;5.95;;;12.50;94.90;;;;;;5056572;28;20277;-92
2022/04/22 03:15:47;;;;;;;8.90;6.60;;;12.50;95.10;;;;;;5030836;28;20308;-92
2022/04/22 03:18:12;;;;;;;9.70;7.07;;;12.50;95.10;;;;;;5032601;28;20211;-88
2022/04/22 03:20:38;;;;;;;8.37;6.33;;;12.50;95.10;;;;;;5018405;28;20391;-88
2022/04/22 03:23:04;;;;;;;10.57;6.40;;;12.50;95.00;;;;;;5015829;28;20215;-92
2022/04/22 03:25:29;;;;;;;8.97;6.20;;;12.60;95.10;;;;;;5017894;28;20223;-88
2022/04/22 03:27:55;;;;;;;9.67;6.37;;;12.60;95.10;;;;;;5017660;28;20418;-89
2022/04/22 03:30:21;;;;;;;8.77;6.50;;;12.60;95.20;;;;;;5017287;28;20185;-92
2022/04/22 03:32:47;;;;;;;7.93;6.55;;;12.60;95.20;;;;;;5018423;28;20195;-91
2022/04/22 03:35:13;;;;;;;8.77;6.20;;;12.70;95.50;;;;;;5020030;28;20175;-90
2022/04/22 03:37:41;;;;;;;8.73;7.50;;;12.70;95.70;;;;;;5020082;28;20195;-92
2022/04/22 03:40:09;;;;;;;8.93;6.38;;;12.80;95.90;;;;;;5020385;28;20456;-95
2022/04/22 03:42:36;;;;;;;14.75;7.78;;;12.80;95.90;;;;;;5026801;28;20202;-95
2022/04/22 03:45:03;;;;;;;15.38;7.70;;;12.80;95.80;;;;;;5014631;28;20305;-89
2022/04/22 03:47:29;;;;;;;11.73;7.78;;;12.80;96.40;;;;;;5025205;28;20678;-94
2022/04/22 03:49:55;;;;;;;12.30;7.27;;;12.80;96.80;;;;;;5017526;28;20215;-95
2022/04/22 03:52:21;;;;;;;10.10;7.07;;;12.80;97.20;;;;;;5030180;28;20445;-89
2022/04/22 03:54:47;;;;;;;12.60;7.23;;;12.90;97.60;;;;;;5023368;28;20198;-88
2022/04/22 03:59:57;;;;;;;16.00;8.77;;;12.90;98.70;;;;;;5013951;28;20267;-94
2022/04/22 04:02:22;;;;;;;12.30;8.50;;;12.90;99.50;;;;;;5012775;28;20227;-89
2022/04/22 04:04:49;;;;;;;11.30;8.70;;;12.80;99.90;;;;;;5014769;28;20728;-95
2022/04/22 04:07:15;;;;;;;13.00;9.02;;;12.80;99.90;;;;;;5013828;28;20199;-95
2022/04/22 04:17:55;;;;;;;12.65;8.60;;;12.70;99.90;;;;;;5016320;28;20228;-95
2022/04/22 04:23:17;;;;;;;16.10;11.40;;;12.70;99.90;;;;;;5014089;28;20244;-94
2022/04/22 04:25:47;;;;;;;17.90;11.05;;;12.70;99.90;;;;;;5012698;28;20227;-95
2022/04/22 04:28:15;;;;;;;14.40;10.20;;;12.70;99.90;;;;;;5025299;28;20198;-95
2022/04/22 04:30:42;;;;;;;17.40;9.57;;;12.70;99.90;;;;;;5014826;28;20626;-88
2022/04/22 04:33:08;;;;;;;13.98;9.07;;;12.60;99.90;;;;;;5015444;28;20191;-95
2022/04/22 04:35:35;;;;;;;11.90;9.30;;;12.60;99.90;;;;;;5034886;28;20639;-88
2022/04/22 04:38:02;;;;;;;13.95;9.88;;;12.60;99.90;;;;;;5017080;28;20622;-94
2022/04/22 04:40:28;;;;;;;13.70;8.60;;;12.60;99.90;;;;;;5035891;28;20175;-88
2022/04/22 04:42:54;;;;;;;12.00;8.33;;;12.60;99.90;;;;;;5035063;28;20223;-87
2022/04/22 04:45:20;;;;;;;14.02;9.52;;;12.60;99.90;;;;;;5016753;28;20480;-95
2022/04/22 04:47:46;;;;;;;15.30;8.15;;;12.50;99.90;;;;;;5016992;28;20282;-94
2022/04/22 04:50:12;;;;;;;15.17;8.73;;;12.50;99.90;;;;;;5017072;28;20258;-87
2022/04/22 04:52:40;;;;;;;16.63;9.85;;;12.40;99.90;;;;;;5035009;28;20420;-94
2022/04/22 04:55:08;;;;;;;12.95;8.93;;;12.50;99.90;;;;;;5015833;28;20234;-95
2022/04/22 04:57:35;;;;;;;13.27;8.75;;;12.40;99.90;;;;;;5016639;28;20281;-88
2022/04/22 05:00:02;;;;;;;11.45;8.80;;;12.40;99.90;;;;;;5034170;28;20171;-94
2022/04/22 05:02:28;;;;;;;13.30;9.20;;;12.50;99.90;;;;;;5037375;28;20195;-88
2022/04/22 05:04:54;;;;;;;17.77;10.20;;;12.50;99.90;;;;;;5017172;28;20218;-87
2022/04/22 05:07:20;;;;;;;12.80;9.30;;;12.40;99.90;;;;;;5041208;28;20198;-89
2022/04/22 05:09:46;;;;;;;14.23;10.65;;;12.40;99.90;;;;;;5049376;28;20268;-87
2022/04/22 05:12:11;;;;;;;12.87;9.97;;;12.50;99.90;;;;;;5115559;28;20545;-88
2022/04/22 05:14:37;;;;;;;14.10;10.07;;;12.50;99.90;;;;;;5115859;28;20186;-89
2022/04/22 05:17:03;;;;;;;17.80;9.30;;;12.50;99.90;;;;;;5087120;28;20570;-94
2022/04/22 05:19:29;;;;;;;14.73;9.57;;;12.50;99.90;;;;;;5103505;28;20420;-94
2022/04/22 05:21:55;;;;;;;13.07;10.10;;;12.40;99.90;;;;;;5114710;28;20940;-88
2022/04/22 05:24:22;;;;;;;13.27;9.10;;;12.40;99.90;;;;;;5099617;28;20245;-94
2022/04/22 05:26:48;;;;;;;14.63;9.60;;;12.30;99.90;;;;;;5100944;28;20211;-87
2022/04/22 05:34:43;;;;;;;16.02;10.52;;;12.20;99.90;;;;;;5112717;28;20611;-95
2022/04/22 05:37:09;;;;;;;14.60;9.20;;;12.20;99.90;;;;;;5073012;28;20200;-87
2022/04/22 05:39:34;;;;;;;12.90;8.07;;;12.20;99.90;;;;;;5084704;28;20469;-94
2022/04/22 05:42:01;;;;;;;12.23;8.83;;;12.20;99.90;;;;;;5091420;28;20826;-88
2022/04/22 05:44:30;;;;;;;13.32;8.98;;;12.20;99.90;;;;;;5067786;28;20480;-94
2022/04/22 05:46:56;;;;;;;14.18;9.65;;;12.20;99.90;;;;;;5086601;28;20199;-95
2022/04/22 05:49:22;;;;;;;13.60;9.17;;;12.10;99.90;;;;;;5085666;27;20528;-87
2022/04/22 05:51:48;;;;;;;13.25;9.88;;;12.10;99.90;;;;;;5065798;28;20426;-87
2022/04/22 05:54:15;;;;;;;13.03;9.43;;;12.10;99.90;;;;;;5084728;27;20310;-87
2022/04/22 05:56:41;;;;;;;20.92;11.82;;;12.10;99.90;;;;;;5078656;28;20180;-94
2022/04/22 05:59:07;;;;;;;16.73;9.85;;;12.10;99.90;;;;;;5092126;27;20176;-95
2022/04/22 06:01:34;;;;;;;16.13;10.37;;;12.10;99.90;;;;;;5096671;28;21313;-94
2022/04/22 06:04:00;;;;;;;14.05;9.40;;;12.00;99.90;;;;;;5071907;28;20425;-87
2022/04/22 06:06:26;;;;;;;14.80;9.93;;;12.00;99.90;;;;;;5070863;28;20183;-94
2022/04/22 06:11:36;;;;;;;19.33;11.50;;;12.00;99.90;;;;;;5006832;28;20813;-94
2022/04/22 06:14:02;;;;;;;14.83;10.40;;;12.00;99.90;;;;;;5010053;28;20192;-93
2022/04/22 06:16:28;;;;;;;16.85;10.40;;;12.10;99.90;;;;;;5001780;28;20187;-86
2022/04/22 06:18:54;;;;;;;11.75;9.30;;;12.10;99.90;;;;;;5006062;28;20239;-87
2022/04/22 06:21:20;;;;;;;15.77;10.27;;;12.10;99.90;;;;;;4989993;28;20194;-87
2022/04/22 06:23:45;;;;;;;14.83;9.50;;;12.10;99.90;;;;;;4984942;28;20345;-87
2022/04/22 06:26:11;;;;;;;15.43;10.03;;;12.10;99.90;;;;;;4984654;28;20198;-86
2022/04/22 06:28:37;;;;;;;16.77;10.50;;;12.10;99.90;;;;;;5013218;28;20428;-94
2022/04/22 06:31:03;;;;;;;13.73;8.90;;;12.10;99.90;;;;;;5007734;28;20187;-94
2022/04/22 06:33:29;;;;;;;14.70;8.80;;;12.20;99.90;;;;;;4990865;28;20430;-94
2022/04/22 06:35:58;;;;;;;12.45;8.45;;;12.10;99.90;;;;;;5004700;28;20431;-93
2022/04/22 06:38:24;;;;;;;13.27;7.70;;;12.20;99.90;;;;;;5005716;28;20206;-94
2022/04/22 06:46:20;;;;;;;16.40;8.75;;;12.20;99.90;;;;;;5005781;28;20318;-94
2022/04/22 06:48:46;;;;;;;15.53;9.50;;;12.20;99.90;;;;;;4988723;28;20837;-93
2022/04/22 06:51:12;;;;;;;13.30;8.38;;;12.30;99.90;;;;;;5004340;28;20484;-93
2022/04/22 06:53:38;;;;;;;19.70;9.23;;;12.30;99.90;;;;;;5010951;28;20214;-94
2022/04/22 06:56:06;;;;;;;11.00;8.93;;;12.30;99.90;;;;;;5003443;28;20249;-94
2022/04/22 06:58:37;;;;;;;10.82;8.43;;;12.40;99.90;;;;;;5002269;28;20203;-94
2022/04/22 07:01:04;;;;;;;13.13;8.63;;;12.50;99.90;;;;;;4986998;28;20184;-94
2022/04/22 07:03:30;;;;;;;12.55;7.72;;;12.50;99.90;;;;;;4987332;28;20209;-94
2022/04/22 07:05:56;;;;;;;11.43;8.65;;;12.60;99.90;;;;;;4995167;28;20226;-94
2022/04/22 07:08:22;;;;;;;14.88;9.75;;;12.70;99.90;;;;;;4980590;28;20305;-94
2022/04/22 07:10:50;;;;;;;11.90;7.25;;;12.70;99.90;;;;;;5004331;28;20287;-94
2022/04/22 07:13:16;;;;;;;10.20;8.15;;;12.80;99.90;;;;;;5016910;28;20214;-94
2022/04/22 07:15:51;;;;;;;11.05;9.20;;;12.80;99.90;;;;;;5005055;28;20670;-94
2022/04/22 07:18:17;;;;;;;12.90;8.68;;;12.90;99.90;;;;;;5037722;28;20212;-87
2022/04/22 07:20:44;;;;;;;11.73;7.50;;;13.00;99.90;;;;;;5031402;28;20658;-93
2022/04/22 07:23:12;;;;;;;15.40;8.73;;;13.10;99.90;;;;;;5026298;28;20483;-93
2022/04/22 07:25:38;;;;;;;13.23;9.32;;;13.20;99.90;;;;;;5021151;28;20476;-95
2022/04/22 07:28:04;;;;;;;9.57;7.23;;;13.30;99.90;;;;;;4992891;28;20249;-87
2022/04/22 07:30:30;;;;;;;10.80;7.83;;;13.50;99.90;;;;;;5031165;28;20952;-87
2022/04/22 07:32:56;;;;;;;11.17;8.87;;;13.60;99.90;;;;;;5015318;28;20480;-88
2022/04/22 07:35:22;;;;;;;8.43;6.97;;;13.80;99.90;;;;;;5027437;28;20528;-95
2022/04/22 07:37:52;;;;;;;7.27;6.07;;;14.00;99.90;;;;;;5007576;28;20447;-88
2022/04/22 07:40:21;;;;;;;11.83;6.20;;;14.10;99.90;;;;;;5037776;28;20435;-87
2022/04/22 07:48:24;;;;;;;11.00;7.33;;;14.40;99.90;;;;;;5026642;28;20466;-95
2022/04/22 07:50:50;;;;;;;10.47;7.97;;;14.50;99.90;;;;;;5032328;28;20443;-87
2022/04/22 07:53:17;;;;;;;10.40;8.27;;;14.50;99.90;;;;;;5014546;28;20443;-95
2022/04/22 07:55:43;;;;;;;10.83;7.33;;;14.50;99.90;;;;;;5008914;28;20878;-88
2022/04/22 07:58:13;;;;;;;10.87;8.33;;;14.40;99.90;;;;;;5017333;27;20443;-96
2022/04/22 08:00:43;;;;;;;12.50;8.73;;;14.40;99.90;;;;;;5029575;28;20514;-95
2022/04/22 08:03:09;;;;;;;11.60;8.20;;;14.30;99.90;;;;;;5037643;27;20462;-87
2022/04/22 08:05:35;;;;;;;8.63;6.60;;;14.30;99.90;;;;;;5056371;27;20523;-87
2022/04/22 08:08:01;;;;;;;11.43;8.00;;;14.20;99.90;;;;;;5097482;27;20444;-95
2022/04/22 08:10:27;;;;;;;9.90;7.97;;;14.20;99.90;;;;;;5038503;27;20459;-94
2022/04/22 08:12:53;;;;;;;10.00;7.70;;;14.20;99.90;;;;;;5040827;28;20436;-87
2022/04/22 08:15:19;;;;;;;10.70;8.27;;;14.10;99.90;;;;;;5060708;27;20193;-89
2022/04/22 08:17:46;;;;;;;13.97;8.63;;;14.10;99.90;;;;;;5018710;28;20199;-88
2022/04/22 08:20:12;;;;;;;10.50;7.87;;;14.10;99.90;;;;;;5039567;27;20443;-94
2022/04/22 08:22:38;;;;;;;9.70;7.67;;;14.10;99.90;;;;;;5045259;27;20492;-90
2022/04/22 08:25:05;;;;;;;11.23;8.10;;;14.10;99.90;;;;;;5065075;27;20866;-95
2022/04/22 08:27:31;;;;;;;10.97;8.60;;;14.10;99.90;;;;;;5014256;28;20431;-95
2022/04/22 08:29:58;;;;;;;12.37;8.47;;;14.20;99.90;;;;;;5016549;27;20984;-96
2022/04/22 08:32:25;;;;;;;11.10;8.10;;;14.30;99.90;;;;;;5099604;27;20456;-94
2022/04/22 08:34:51;;;;;;;11.43;7.70;;;14.30;99.90;;;;;;5033481;28;20810;-89
2022/04/22 08:37:18;;;;;;;11.50;6.20;;;14.40;99.90;;;;;;5086646;28;20455;-90
2022/04/22 08:39:44;;;;;;;8.23;5.30;;;14.50;99.90;;;;;;5013927;28;20456;-88
2022/04/22 08:42:12;;;;;;;8.07;4.57;;;14.60;99.90;;;;;;5038274;28;20471;-87
2022/04/22 08:44:39;;;;;;;7.97;6.10;;;14.70;99.90;;;;;;5030658;28;20436;-96
2022/04/22 08:50:09;;;;;;;6.77;5.03;;;15.00;99.90;;;;;;5062224;27;20560;-96
2022/04/22 08:52:36;;;;;;;7.57;5.33;;;15.10;99.90;;;;;;5032454;27;20477;-88
2022/04/22 08:55:06;;;;;;;7.70;5.40;;;15.20;99.90;;;;;;5091513;27;20434;-96
2022/04/22 08:57:32;;;;;;;7.20;5.80;;;15.30;99.90;;;;;;5057684;27;20487;-88
2022/04/22 09:00:04;;;;;;;8.07;6.23;;;15.40;99.90;;;;;;5038460;27;20442;-88
2022/04/22 09:02:30;;;;;;;7.27;5.90;;;15.40;99.90;;;;;;5021680;27;20211;-96
2022/04/22 09:04:56;;;;;;;10.30;6.80;;;15.40;99.90;;;;;;5024011;28;20476;-88
2022/04/22 09:07:27;;;;;;;8.90;7.30;;;15.40;99.90;;;;;;5068320;27;20446;-95
2022/04/22 09:09:53;;;;;;;13.60;7.37;;;15.40;99.90;;;;;;5073044;28;20479;-87
2022/04/22 09:12:24;;;;;;;13.33;8.10;;;15.30;99.90;;;;;;5112683;28;20432;-94
2022/04/22 09:14:55;;;;;;;11.73;7.70;;;15.30;99.90;;;;;;5114288;28;20455;-88
2022/04/22 09:17:32;;;;;;;10.20;6.97;;;15.30;99.90;;;;;;5104115;28;20432;-88
2022/04/22 09:20:01;;;;;;;10.77;8.10;;;15.30;99.90;;;;;;5093169;28;20972;-95
2022/04/22 09:22:29;;;;;;;11.50;8.20;;;15.30;99.90;;;;;;5094053;28;20489;-88
2022/04/22 09:24:57;;;;;;;12.40;8.50;;;15.30;99.90;;;;;;5111604;28;20475;-88
2022/04/22 09:27:43;;;;;;;9.73;6.80;;;15.30;99.90;;;;;;5115916;28;20464;-94
2022/04/22 09:30:11;;;;;;;7.93;6.20;;;15.40;99.90;;;;;;5096713;28;20432;-96
2022/04/22 09:32:39;;;;;;;9.33;7.20;;;15.40;99.90;;;;;;5096364;28;20492;-95
2022/04/22 09:35:10;;;;;;;8.97;6.90;;;15.40;99.90;;;;;;5111006;28;20442;-94
2022/04/22 09:43:25;;;;;;;10.20;7.40;;;15.50;99.90;;;;;;5097547;28;20495;-87
2022/04/22 09:45:54;;;;;;;10.03;6.23;;;15.50;99.90;;;;;;5109076;28;20521;-88
2022/04/22 09:48:22;;;;;;;10.67;7.33;;;15.50;99.90;;;;;;5108655;28;20432;-95
2022/04/22 09:50:57;;;;;;;8.30;6.57;;;15.60;99.90;;;;;;5091814;28;20844;-88
2022/04/22 09:53:33;;;;;;;9.40;7.30;;;15.60;99.90;;;;;;5091184;28;20983;-88
2022/04/22 09:56:09;;;;;;;10.97;7.17;;;15.60;99.90;;;;;;5093487;28;20432;-96
2022/04/22 09:58:36;;;;;;;9.17;6.77;;;15.70;99.90;;;;;;5095056;28;20447;-95
2022/04/22 10:01:06;;;;;;;10.13;6.40;;;15.70;99.90;;;;;;5092761;28;20441;-95
2022/04/22 10:03:38;;;;;;;9.10;6.13;;;15.80;99.90;;;;;;5095363;28;21033;-96
2022/04/22 10:06:05;;;;;;;8.93;6.87;;;15.90;99.90;;;;;;5091606;28;20479;-88
2022/04/22 10:08:36;;;;;;;7.70;5.97;;;15.90;99.90;;;;;;5105910;28;20445;-88
2022/04/22 10:11:03;;;;;;;9.97;6.70;;;16.00;99.90;;;;;;5012985;28;20472;-95
2022/04/22 10:13:40;;;;;;;8.90;6.33;;;16.00;99.90;;;;;;5008524;28;21098;-96
2022/04/22 10:16:08;;;;;;;11.27;7.07;;;16.10;99.90;;;;;;5016394;28;20435;-96
2022/04/22 10:18:35;;;;;;;8.27;6.00;;;16.10;99.90;;;;;;5014668;28;20452;-95
2022/04/22 10:21:01;;;;;;;7.83;5.70;;;16.20;99.90;;;;;;5027078;28;20456;-96
2022/04/22 10:23:29;;;;;;;10.97;6.77;;;16.20;99.90;;;;;;5034500;28;20501;-96
2022/04/22 10:25:56;;;;;;;8.17;6.60;;;16.30;99.90;;;;;;5020730;28;20911;-95
2022/04/22 10:28:24;;;;;;;9.67;6.43;;;16.40;99.90;;;;;;5002135;28;20455;-95
2022/04/22 10:30:53;;;;;;;9.90;7.03;;;16.40;99.90;;;;;;5019317;28;20437;-96
2022/04/22 10:33:23;;;;;;;9.67;6.60;;;16.50;99.90;;;;;;5029891;28;20437;-89
2022/04/22 10:36:01;;;;;;;10.60;7.13;;;16.60;99.90;;;;;;4991824;28;20493;-88
2022/04/22 10:38:27;;;;;;;10.37;6.53;;;16.70;99.90;;;;;;5008175;28;20432;-89
2022/04/22 10:40:54;;;;;;;9.97;6.27;;;16.80;99.90;;;;;;4998675;28;20441;-89
2022/04/22 10:43:21;;;;;;;7.93;6.20;;;17.00;99.90;;;;;;4987908;28;20539;-89
2022/04/22 10:48:31;;;;;;;7.30;6.40;;;17.20;99.90;;;;;;5001349;28;20497;-88
2022/04/22 10:51:02;;;;;;;8.10;5.83;;;17.40;99.90;;;;;;4993883;28;20455;-95
2022/04/22 10:53:33;;;;;;;10.10;7.37;;;17.60;99.90;;;;;;4990354;28;20489;-96
2022/04/22 10:56:36;;;;;;;8.30;7.03;;;17.70;99.90;;;;;;5003981;28;20456;-96
2022/04/22 10:59:20;;;;;;;11.60;6.00;;;17.80;99.90;;;;;;5004693;28;20416;-88
2022/04/22 11:01:47;;;;;;;7.10;6.40;;;17.90;99.90;;;;;;5002027;28;20479;-88
2022/04/22 11:04:31;;;;;;;6.77;5.57;;;18.00;99.90;;;;;;4994265;28;20436;-87
2022/04/22 11:06:57;;;;;;;11.40;6.27;;;18.10;99.90;;;;;;5013359;28;20447;-88
2022/04/22 11:09:28;;;;;;;8.70;6.80;;;18.20;99.90;;;;;;5008024;28;20438;-90
2022/04/22 11:11:55;;;;;;;9.23;7.30;;;18.20;99.90;;;;;;5021262;28;20460;-89
2022/04/22 11:14:23;;;;;;;5.53;4.57;;;18.30;99.90;;;;;;5020032;28;20444;-89
2022/04/22 11:16:50;;;;;;;8.63;6.40;;;18.40;99.90;;;;;;5015630;28;20433;-88
2022/04/22 11:19:18;;;;;;;7.33;5.83;;;18.50;99.90;;;;;;5011836;28;20491;-89
2022/04/22 11:21:52;;;;;;;6.80;5.40;;;18.60;99.90;;;;;;5024005;28;20449;-95
2022/04/22 11:24:23;;;;;;;7.10;5.33;;;18.80;99.90;;;;;;5028635;28;20472;-96
2022/04/22 11:26:50;;;;;;;9.73;6.53;;;18.90;99.90;;;;;;5026297;28;20552;-89
2022/04/22 11:29:16;;;;;;;7.97;6.63;;;18.90;99.90;;;;;;5021380;27;20438;-96
2022/04/22 11:32:11;;;;;;;8.40;4.80;;;19.00;99.90;;;;;;5011054;28;20431;-96
2022/04/22 11:34:43;;;;;;;10.27;5.23;;;19.00;99.90;;;;;;5028673;27;20452;-89
2022/04/22 11:37:22;;;;;;;6.57;4.60;;;19.10;99.90;;;;;;5010083;28;20458;-88
2022/04/22 11:39:48;;;;;;;5.97;4.20;;;19.20;99.90;;;;;;5013982;28;20436;-88
2022/04/22 11:42:17;;;;;;;9.27;4.80;;;19.30;99.90;;;;;;5023460;27;20475;-89
2022/04/22 11:45:02;;;;;;;8.53;4.73;;;19.40;99.90;;;;;;5032789;28;20541;-89
2022/04/22 11:47:28;;;;;;;5.93;3.77;;;19.50;99.90;;;;;;4996667;28;20496;-96
2022/04/22 11:49:57;;;;;;;6.07;4.23;;;19.60;99.90;;;;;;5026589;28;20423;-96
2022/04/22 11:52:23;;;;;;;5.50;3.57;;;19.60;99.90;;;;;;5026517;28;20436;-89
2022/04/22 11:54:50;;;;;;;9.33;4.40;;;19.70;99.90;;;;;;5008925;28;20442;-96
2022/04/22 11:57:21;;;;;;;5.67;3.83;;;19.70;99.90;;;;;;5030227;28;20454;-96
2022/04/22 12:05:32;;;;;;;4.60;3.40;;;19.70;99.90;;;;;;5019397;28;20459;-96
2022/04/22 12:05:32;;;;;;;8.20;5.27;;;19.70;99.90;;;;;;5023752;28;20834;-88
2022/04/22 12:08:05;;;;;;;6.10;4.50;;;19.70;99.90;;;;;;5015021;27;20450;-88
2022/04/22 12:10:32;;;;;;;9.73;4.93;;;19.70;99.90;;;;;;5054360;28;20512;-88
2022/04/22 12:13:01;;;;;;;6.00;5.07;;;19.70;99.90;;;;;;5122422;28;20445;-94
2022/04/22 12:15:27;;;;;;;5.30;4.80;;;19.70;99.90;;;;;;5101748;28;20430;-89
2022/04/22 12:17:53;;;;;;;8.57;4.93;;;19.70;99.90;;;;;;5084470;28;20430;-96
2022/04/22 12:20:20;;;;;;;5.73;3.90;;;19.70;99.90;;;;;;5091697;28;20962;-89
2022/04/22 12:22:49;;;;;;;5.17;4.50;;;19.70;99.90;;;;;;5099148;28;20470;-95
2022/04/22 12:25:19;;;;;;;8.27;5.00;;;19.70;99.90;;;;;;5106758;28;20489;-96
2022/04/22 12:28:13;;;;;;;6.40;4.20;;;19.70;99.90;;;;;;5098494;28;20444;-88
2022/04/22 12:30:43;;;;;;;4.33;3.53;;;19.80;99.90;;;;;;5097510;28;20443;-89
2022/04/22 12:33:18;;;;;;;5.70;3.13;;;19.80;99.90;;;;;;5107683;28;20435;-89
2022/04/22 12:35:45;;;;;;;6.47;4.57;;;19.80;99.90;;;;;;5087937;28;20723;-93
2022/04/22 12:38:13;;;;;;;5.07;3.63;;;19.80;99.90;;;;;;5092190;28;20485;-88
2022/04/22 12:40:47;;;;;;;5.43;3.80;;;19.80;99.90;;;;;;5085134;27;20451;-96
2022/04/22 12:43:27;;;;;;;5.73;4.20;;;19.80;99.90;;;;;;5109460;27;20571;-95
2022/04/22 12:54:32;;;;;;;5.67;3.60;;;19.70;99.90;;;;;;5126251;28;20482;-95
2022/04/22 12:57:03;;;;;;;7.67;3.83;;;19.70;99.90;;;;;;5103549;28;20958;-95
2022/04/22 12:59:45;;;;;;;4.83;2.97;;;19.60;99.90;;;;;;5112018;28;20500;-88
2022/04/22 13:02:14;;;;;;;8.67;3.97;;;19.60;99.90;;;;;;5090987;28;20573;-88
2022/04/22 13:05:35;;;;;;;8.00;3.80;;;19.60;99.90;;;;;;5090644;28;21092;-88
2022/04/22 13:08:19;;;;;;;4.10;3.40;;;19.60;99.90;;;;;;5100601;27;20462;-88
2022/04/22 13:10:45;;;;;;;5.53;3.93;;;19.60;99.90;;;;;;5062586;27;20560;-87
2022/04/22 13:13:12;;;;;;;5.27;3.27;;;19.60;99.90;;;;;;5043529;27;20460;-87
2022/04/22 13:15:37;;;;;;;5.10;3.20;;;19.60;99.90;;;;;;5044393;28;20433;-95
2022/04/22 13:18:03;;;;;;;5.27;3.63;;;19.50;99.90;;;;;;5026461;28;20469;-96
2022/04/22 13:20:30;;;;;;;4.70;4.30;;;19.50;99.90;;;;;;5066163;27;20188;-95
2022/04/22 13:22:56;;;;;;;4.30;3.90;;;19.60;99.90;;;;;;5072457;27;20449;-88
2022/04/22 13:25:22;;;;;;;6.10;3.93;;;19.60;99.90;;;;;;5035949;27;20778;-95
2022/04/22 13:27:49;;;;;;;3.40;2.97;;;19.60;99.90;;;;;;5112279;27;20462;-95
2022/04/22 13:30:15;;;;;;;6.03;4.50;;;19.70;99.90;;;;;;5033090;28;20437;-94
2022/04/22 13:32:41;;;;;;;4.17;3.40;;;19.70;99.90;;;;;;5054061;27;20471;-95
2022/04/22 13:35:24;;;;;;;2.83;2.63;;;19.80;99.90;;;;;;5088926;27;20961;-89
2022/04/22 13:37:50;;;;;;;3.63;3.20;;;19.80;99.90;;;;;;5040848;27;20997;-95
2022/04/22 13:40:16;;;;;;;4.40;3.37;;;19.90;99.90;;;;;;5063207;27;20460;-93
2022/04/22 13:42:50;;;;;;;5.53;3.37;;;19.90;99.90;;;;;;5047579;28;20231;-95
2022/04/22 13:53:33;;;;;;;3.03;2.67;;;20.10;99.90;;;;;;5022769;27;20477;-88
2022/04/22 13:55:59;;;;;;;4.97;3.27;;;20.10;99.90;;;;;;5060876;27;20467;-95
2022/04/22 13:58:26;;;;;;;7.93;3.20;;;20.10;99.90;;;;;;5020551;27;20833;-93
2022/04/22 14:00:52;;;;;;;5.03;3.30;;;20.10;99.90;;;;;;5062766;27;20584;-89
2022/04/22 14:03:19;;;;;;;3.80;3.43;;;20.10;99.90;;;;;;5091074;27;20937;-88